createdAt,value
2023-03-06T00:01:48.695Z,48171.02
2023-03-06T00:06:54.129Z,47021.27
2023-03-06T00:11:57.613Z,45025.25
2023-03-06T00:17:01.057Z,39951.13
2023-03-06T00:22:05.950Z,35260.88
2023-03-06T00:27:10.017Z,21239.38
2023-03-06T00:32:18.963Z,23493.98
2023-03-06T00:37:25.377Z,26770.55
2023-03-06T00:42:32.778Z,27866.79
2023-03-06T00:47:36.279Z,30999.97
2023-03-06T00:52:42.070Z,32578.63
2023-03-06T00:57:48.671Z,30290.76
2023-03-06T01:02:53.702Z,30018.75
2023-03-06T01:08:00.290Z,29973.01
2023-03-06T01:13:06.562Z,34678.45
2023-03-06T01:18:12.431Z,32592.83
2023-03-06T01:23:19.301Z,33051.02
2023-03-06T01:28:22.881Z,33684.88
2023-03-06T01:33:28.563Z,36916.93
2023-03-06T01:38:36.115Z,34842.86
2023-03-06T01:43:42.306Z,36780.75
2023-03-06T01:48:49.703Z,36208.35
2023-03-06T01:53:59.292Z,38725.75
2023-03-06T01:59:03.737Z,38541.24
2023-03-06T02:04:10.217Z,39044.49
2023-03-06T02:09:15.631Z,38406.56
2023-03-06T02:14:21.266Z,37780.95
2023-03-06T02:19:34.034Z,38969.91
2023-03-06T02:24:45.245Z,39268.36
2023-03-06T02:29:50.232Z,36987.30
2023-03-06T02:34:58.334Z,35058.97
2023-03-06T02:40:12.269Z,37632.34
2023-03-06T02:45:23.217Z,36808.72
2023-03-06T02:50:28.967Z,38727.00
2023-03-06T02:55:32.728Z,39099.50
2023-03-06T03:00:40.489Z,38619.93
2023-03-06T03:05:46.144Z,34775.01
2023-03-06T03:10:57.410Z,34810.49
2023-03-06T03:16:09.475Z,30284.00
2023-03-06T03:21:13.977Z,25584.66
2023-03-06T03:26:22.669Z,26445.61
2023-03-06T03:31:35.339Z,25854.86
2023-03-06T03:36:42.417Z,29410.76
2023-03-06T03:41:49.360Z,28224.61
2023-03-06T03:46:54.608Z,26014.31
2023-03-06T03:51:59.763Z,27857.62
2023-03-06T03:57:06.355Z,33974.91
2023-03-06T04:02:14.929Z,37213.21
2023-03-06T04:07:27.620Z,35954.04
2023-03-06T04:12:33.638Z,34729.23
2023-03-06T04:17:41.805Z,35561.83
2023-03-06T04:22:53.206Z,37560.59
2023-03-06T04:27:59.624Z,35712.34
2023-03-06T04:33:08.283Z,36045.31
2023-03-06T04:38:14.877Z,35661.39
2023-03-06T04:43:18.573Z,35304.87
2023-03-06T04:48:25.591Z,36592.74
2023-03-06T04:53:29.097Z,35616.75
2023-03-06T04:58:32.553Z,37004.43
2023-03-06T05:03:39.782Z,39169.09
2023-03-06T05:08:43.214Z,39936.06
2023-03-06T05:13:46.705Z,41612.58
2023-03-06T05:18:56.238Z,38919.32
2023-03-06T05:23:59.726Z,34009.55
2023-03-06T05:29:03.185Z,35854.10
2023-03-06T05:34:14.176Z,36115.91
2023-03-06T05:39:17.969Z,37400.11
2023-03-06T05:44:24.546Z,39196.67
2023-03-06T05:49:34.001Z,38318.26
2023-03-06T05:54:38.135Z,39710.09
2023-03-06T05:59:41.537Z,40476.90
2023-03-06T06:04:51.190Z,41836.75
2023-03-06T06:09:57.960Z,42336.02
2023-03-06T06:15:01.455Z,41942.51
2023-03-06T06:20:10.411Z,41876.74
2023-03-06T06:25:14.096Z,41159.35
2023-03-06T06:30:20.363Z,39563.71
2023-03-06T06:35:25.177Z,32924.19
2023-03-06T06:40:31.012Z,17615.18
2023-03-06T06:45:34.545Z,45370.79
2023-03-06T06:50:39.466Z,37551.66
2023-03-06T06:55:43.062Z,34582.69
2023-03-06T07:03:45.782Z,34.42
2023-03-06T07:08:51.613Z,35.10
2023-03-06T07:13:56.124Z,34.04
2023-03-06T07:19:03.064Z,35.99
2023-03-06T07:24:11.918Z,34.73
2023-03-06T07:29:15.571Z,35.28
2023-03-06T07:34:22.731Z,33.98
2023-03-06T07:39:28.077Z,34.03
2023-03-06T07:44:31.880Z,33.35
2023-03-06T07:49:36.729Z,37.17
2023-03-06T07:54:40.236Z,38.61
2023-03-06T07:59:43.670Z,36.67
2023-03-06T08:04:54.382Z,33.94
2023-03-06T08:10:02.636Z,33.91
2023-03-06T08:15:10.169Z,34.52
2023-03-06T08:20:18.679Z,36.78
2023-03-06T08:25:22.141Z,33.53
2023-03-06T08:30:25.653Z,31.24
2023-03-06T08:35:30.637Z,31.60
2023-03-06T08:40:34.577Z,31.94
2023-03-06T08:45:38.082Z,32.27
2023-03-06T08:50:45.332Z,30.91
2023-03-06T08:55:48.989Z,29.59
2023-03-06T09:00:52.701Z,28.55
2023-03-06T09:05:57.511Z,39.25
2023-03-06T09:11:06.006Z,31.29
2023-03-06T09:16:09.688Z,27.37
2023-03-06T09:21:14.627Z,24.21
2023-03-06T09:26:21.147Z,26.28
2023-03-06T09:31:27.580Z,21.84
2023-03-06T09:36:49.338Z,20.05
2023-03-06T09:41:58.670Z,19.74
2023-03-06T09:47:27.638Z,22.43
2023-03-06T09:52:37.555Z,18.96
2023-03-06T09:57:44.091Z,18.79
2023-03-06T10:02:56.997Z,18.53
2023-03-06T10:08:12.530Z,18.10
2023-03-06T10:13:22.050Z,16.61
2023-03-06T10:18:25.507Z,18.98
2023-03-06T10:23:43.536Z,18.32
2023-03-06T10:28:58.474Z,15.63
2023-03-06T10:34:13.596Z,16.80
2023-03-06T10:39:22.166Z,16.86
2023-03-06T10:44:26.042Z,15.60
2023-03-06T10:49:35.009Z,18.49
2023-03-06T10:54:41.048Z,17.76
2023-03-06T10:59:52.171Z,17.39
2023-03-06T11:04:57.264Z,20.99
2023-03-06T11:10:08.897Z,65.72
2023-03-06T11:15:21.186Z,35.10
2023-03-06T11:20:26.572Z,30.59
2023-03-06T11:25:35.249Z,38.14
2023-03-06T11:30:46.376Z,23.96
2023-03-06T11:35:57.293Z,28.23
2023-03-06T11:41:09.333Z,34.03
2023-03-06T11:46:19.845Z,49.00
2023-03-06T11:51:26.466Z,107.72
2023-03-06T11:56:45.513Z,36.60
2023-03-06T12:01:56.481Z,24.80
2023-03-06T12:07:11.836Z,17.31
2023-03-06T12:12:31.887Z,20.84
2023-03-06T12:17:50.943Z,14.09
2023-03-06T12:23:02.468Z,15.88
2023-03-06T12:28:33.007Z,14.06
2023-03-06T12:33:44.718Z,15.15
2023-03-06T12:39:01.509Z,16.24
2023-03-06T12:44:35.316Z,17.41
2023-03-06T12:49:42.259Z,19.18
2023-03-06T12:54:46.527Z,18.00
2023-03-06T12:59:56.352Z,15.89
2023-03-06T13:05:16.796Z,14.81
2023-03-06T13:10:23.644Z,16.83
2023-03-06T13:15:38.351Z,14.10
2023-03-06T13:20:45.203Z,15.23
2023-03-06T13:25:50.312Z,17.35
2023-03-06T13:30:56.570Z,18.87
2023-03-06T13:36:00.928Z,19.92
2023-03-06T13:41:23.032Z,21.55
2023-03-06T13:46:30.988Z,24.23
2023-03-06T13:51:39.417Z,26.86
2023-03-06T13:56:59.988Z,26.99
2023-03-06T14:02:20.215Z,29.02
2023-03-06T14:07:28.223Z,29.42
2023-03-06T14:12:34.958Z,29.87
2023-03-06T14:17:49.882Z,31.09
2023-03-06T14:22:53.311Z,32.55
2023-03-06T14:28:05.716Z,32.91
2023-03-06T14:33:27.780Z,45.47
2023-03-06T14:38:37.810Z,35.28
2023-03-06T14:43:41.221Z,34.99
2023-03-06T14:48:50.780Z,34.62
2023-03-06T14:53:55.394Z,35.13
2023-03-06T14:59:01.325Z,35.03
2023-03-06T15:04:14.114Z,35.31
2023-03-06T15:09:21.610Z,36.86
2023-03-06T15:14:31.101Z,36.10
2023-03-06T15:19:42.940Z,36.55
2023-03-06T15:24:48.732Z,37.63
2023-03-06T15:29:55.192Z,36.27
2023-03-06T15:35:25.588Z,36.61
2023-03-06T15:40:32.034Z,36.74
2023-03-06T15:45:37.785Z,37.92
2023-03-06T15:50:43.701Z,52.89
2023-03-06T15:55:48.910Z,39.93
2023-03-06T16:00:52.534Z,40.15
2023-03-06T16:05:56.053Z,42.81
2023-03-06T16:11:00.942Z,41.78
2023-03-06T16:16:07.637Z,41.37
2023-03-06T16:21:15.083Z,41.28
2023-03-06T16:26:30.175Z,41.58
2023-03-06T16:31:33.830Z,42.26
2023-03-06T16:36:37.399Z,42.03
2023-03-06T16:41:42.329Z,42.04
2023-03-06T16:46:47.272Z,43.99
2023-03-06T16:51:50.876Z,43.11
2023-03-06T16:56:56.098Z,44.28
2023-03-06T17:02:00.101Z,54.33
2023-03-06T17:07:04.549Z,45.24
2023-03-06T17:12:10.074Z,46.37
2023-03-06T17:17:13.577Z,44.47
2023-03-06T17:22:17.982Z,43.86
2023-03-06T17:27:24.420Z,42.67
2023-03-06T17:32:32.443Z,42.44
2023-03-06T17:37:38.104Z,41.65
2023-03-06T17:42:43.022Z,41.35
2023-03-06T17:47:48.968Z,40.80
2023-03-06T17:52:56.136Z,39.52
2023-03-06T17:58:14.504Z,37.16
2023-03-06T18:03:53.066Z,36.76
2023-03-06T18:09:07.947Z,36.91
2023-03-06T18:14:11.574Z,38.75
2023-03-06T18:19:17.800Z,34.92
2023-03-06T18:24:23.443Z,37.03
2023-03-06T18:29:26.896Z,38.46
2023-03-06T18:34:30.520Z,31.71
2023-03-06T18:39:35.344Z,32.61
2023-03-06T18:44:41.381Z,36.44
2023-03-06T18:49:49.415Z,36.75
2023-03-06T18:54:54.300Z,33.86
2023-03-06T18:59:57.774Z,34.38
2023-03-06T19:05:01.227Z,34.34
2023-03-06T19:10:06.686Z,35.00
2023-03-06T19:15:12.432Z,35.27
2023-03-06T19:20:18.367Z,34.64
2023-03-06T19:25:26.304Z,32.81
2023-03-06T19:30:30.098Z,31.73
2023-03-06T19:35:36.165Z,31.44
2023-03-06T19:40:41.018Z,29.61
2023-03-06T19:45:45.063Z,29.63
2023-03-06T19:50:48.658Z,29.55
2023-03-06T19:56:07.226Z,28.94
2023-03-06T20:01:12.050Z,28.36
2023-03-06T20:06:19.877Z,27.18
2023-03-06T20:11:26.440Z,26.94
2023-03-06T20:16:30.750Z,27.34
2023-03-06T20:21:37.944Z,27.52
2023-03-06T20:26:46.337Z,27.94
2023-03-06T20:31:50.114Z,27.80
2023-03-06T20:36:53.574Z,27.33
2023-03-06T20:41:59.147Z,26.14
2023-03-06T20:47:02.660Z,25.36
2023-03-06T20:52:06.205Z,23.73
2023-03-06T20:57:14.281Z,22.13
2023-03-06T21:02:18.007Z,21.34
2023-03-06T21:07:24.712Z,21.81
2023-03-06T21:12:29.884Z,20.54
2023-03-06T21:17:33.347Z,20.98
2023-03-06T21:22:38.719Z,22.08
2023-03-06T21:27:43.823Z,22.22
2023-03-06T21:32:47.414Z,23.73
2023-03-06T21:37:50.994Z,22.81
2023-03-06T21:42:55.764Z,23.33
2023-03-06T21:48:01.861Z,23.85
2023-03-06T21:53:05.300Z,25.35
2023-03-06T21:58:10.180Z,25.91
2023-03-06T22:03:13.585Z,27.23
2023-03-06T22:08:21.182Z,29.01
2023-03-06T22:13:26.057Z,29.62
2023-03-06T22:18:29.601Z,31.73
2023-03-06T22:23:32.971Z,32.75
2023-03-06T22:28:37.857Z,33.58
2023-03-06T22:33:41.980Z,35.19
2023-03-06T22:38:46.842Z,36.08
2023-03-06T22:43:55.999Z,37.43
2023-03-06T22:49:02.674Z,37.16
2023-03-06T22:54:06.666Z,37.68
2023-03-06T22:59:11.400Z,38.70
2023-03-06T23:04:15.019Z,39.47
2023-03-06T23:09:22.525Z,39.54
2023-03-06T23:14:49.635Z,39.80
2023-03-06T23:20:13.349Z,37.37
2023-03-06T23:25:37.618Z,37.63
2023-03-06T23:30:42.936Z,36.88
2023-03-06T23:35:46.749Z,37.05
2023-03-06T23:40:50.428Z,38.44
2023-03-06T23:45:55.342Z,42.19
2023-03-06T23:51:06.127Z,44.09
2023-03-06T23:56:12.482Z,44.81
